createdAt,value
2022-09-07T00:01:48.347Z,61.03
2022-09-07T00:04:15.030Z,61.19
2022-09-07T00:06:41.708Z,61.45
2022-09-07T00:09:08.383Z,61.38
2022-09-07T00:11:34.933Z,61.38
2022-09-07T00:14:01.584Z,61.45
2022-09-07T00:16:30.144Z,61.67
2022-09-07T00:18:59.545Z,61.80
2022-09-07T00:21:26.998Z,61.39
2022-09-07T00:23:53.853Z,61.40
2022-09-07T00:26:23.760Z,61.81
2022-09-07T00:28:50.895Z,62.07
2022-09-07T00:31:22.967Z,62.91
2022-09-07T00:33:51.567Z,61.96
2022-09-07T00:36:19.447Z,62.06
2022-09-07T00:38:46.148Z,62.03
2022-09-07T00:41:13.629Z,62.26
2022-09-07T00:43:43.262Z,62.53
2022-09-07T00:46:15.622Z,62.85
2022-09-07T00:48:49.050Z,62.83
2022-09-07T00:51:23.771Z,62.70
2022-09-07T00:53:58.301Z,63.09
2022-09-07T00:56:28.358Z,62.47
2022-09-07T00:58:55.136Z,62.21
2022-09-07T01:01:21.838Z,62.36
2022-09-07T01:03:51.518Z,62.66
2022-09-07T01:06:21.803Z,62.79
2022-09-07T01:08:50.167Z,62.57
2022-09-07T01:11:22.003Z,63.11
2022-09-07T01:13:51.276Z,62.49
2022-09-07T01:16:46.705Z,63.39
2022-09-07T01:19:57.431Z,62.90
2022-09-07T01:22:51.460Z,62.84
2022-09-07T01:25:46.415Z,62.81
2022-09-07T01:28:23.656Z,62.05
2022-09-07T01:31:17.745Z,63.53
2022-09-07T01:34:09.145Z,63.93
2022-09-07T01:37:07.700Z,63.55
2022-09-07T01:39:42.783Z,63.56
2022-09-07T01:42:13.269Z,62.83
2022-09-07T01:44:46.066Z,62.67
2022-09-07T01:47:17.714Z,62.93
2022-09-07T01:49:52.917Z,62.83
2022-09-07T01:52:27.586Z,63.11
2022-09-07T01:55:05.802Z,63.40
2022-09-07T01:57:40.080Z,62.97
2022-09-07T02:00:15.453Z,63.12
2022-09-07T02:03:33.619Z,62.81
2022-09-07T02:06:00.175Z,62.11
2022-09-07T02:08:31.808Z,62.51
2022-09-07T02:11:05.353Z,63.10
2022-09-07T02:13:37.963Z,63.14
2022-09-07T02:16:11.136Z,62.91
2022-09-07T02:18:44.036Z,62.78
2022-09-07T02:21:11.513Z,62.30
2022-09-07T02:23:53.218Z,62.92
2022-09-07T02:26:22.437Z,62.92
2022-09-07T02:28:49.287Z,62.58
2022-09-07T02:31:16.195Z,62.89
2022-09-07T02:33:43.282Z,62.43
2022-09-07T02:36:13.137Z,63.16
2022-09-07T02:38:39.963Z,62.50
2022-09-07T02:41:26.502Z,62.20
2022-09-07T02:43:53.304Z,62.43
2022-09-07T02:46:30.806Z,63.40
2022-09-07T02:49:06.373Z,63.57
2022-09-07T02:51:55.877Z,63.39
2022-09-07T02:54:30.956Z,62.82
2022-09-07T02:57:19.615Z,62.79
2022-09-07T03:00:09.702Z,63.10
2022-09-07T03:02:59.727Z,63.12
2022-09-07T03:05:47.447Z,63.08
2022-09-07T03:08:26.026Z,63.03
2022-09-07T03:10:53.587Z,62.11
2022-09-07T03:13:21.515Z,62.47
2022-09-07T03:15:50.437Z,61.98
2022-09-07T03:18:20.353Z,62.33
2022-09-07T03:20:46.923Z,61.87
2022-09-07T03:23:13.559Z,61.92
2022-09-07T03:25:40.171Z,61.99
2022-09-07T03:28:07.224Z,62.36
2022-09-07T03:30:33.921Z,62.60
2022-09-07T03:33:00.543Z,62.39
2022-09-07T03:35:27.496Z,62.40
2022-09-07T03:37:54.063Z,62.53
2022-09-07T03:40:20.624Z,62.29
2022-09-07T03:42:49.890Z,62.81
2022-09-07T03:45:16.942Z,62.49
2022-09-07T03:47:43.690Z,62.87
2022-09-07T03:50:10.279Z,62.71
2022-09-07T03:52:37.702Z,62.93
2022-09-07T03:55:05.107Z,62.92
2022-09-07T03:57:31.728Z,63.18
2022-09-07T03:59:58.304Z,62.98
2022-09-07T04:02:24.971Z,62.83
2022-09-07T04:04:51.622Z,62.90
2022-09-07T04:07:18.270Z,62.92
2022-09-07T04:09:44.947Z,62.95
2022-09-07T04:12:11.619Z,62.82
2022-09-07T04:14:38.202Z,62.84
2022-09-07T04:17:04.833Z,62.77
2022-09-07T04:19:31.466Z,62.68
2022-09-07T04:21:58.008Z,62.74
2022-09-07T04:24:24.885Z,62.70
2022-09-07T04:26:51.545Z,62.80
2022-09-07T04:29:18.246Z,62.89
2022-09-07T04:31:44.996Z,62.96
2022-09-07T04:34:11.996Z,62.91
2022-09-07T04:36:38.631Z,62.95
2022-09-07T04:39:05.712Z,62.93
2022-09-07T04:41:33.698Z,63.40
2022-09-07T04:44:02.334Z,63.22
2022-09-07T04:46:31.985Z,63.37
2022-09-07T04:49:01.284Z,63.63
2022-09-07T04:51:30.689Z,63.77
2022-09-07T04:53:59.257Z,63.47
2022-09-07T04:56:26.635Z,63.49
2022-09-07T04:58:53.525Z,63.59
2022-09-07T05:01:22.849Z,63.45
2022-09-07T05:03:50.288Z,63.83
2022-09-07T05:06:18.368Z,63.85
2022-09-07T05:08:46.457Z,63.70
2022-09-07T05:11:13.558Z,63.27
2022-09-07T05:13:40.404Z,63.29
2022-09-07T05:16:09.285Z,63.16
2022-09-07T05:18:36.462Z,63.25
2022-09-07T05:21:09.188Z,64.20
2022-09-07T05:23:35.818Z,63.44
2022-09-07T05:26:04.175Z,63.39
2022-09-07T05:28:31.212Z,63.47
2022-09-07T05:31:23.502Z,64.24
2022-09-07T05:36:39.574Z,63.33
2022-09-07T05:39:07.335Z,63.57
2022-09-07T05:41:34.441Z,63.78
2022-09-07T05:46:47.694Z,63.53
2022-09-07T05:49:14.489Z,63.65
2022-09-07T05:51:41.171Z,63.67
2022-09-07T05:54:07.823Z,63.48
2022-09-07T05:56:36.228Z,63.71
2022-09-07T05:59:03.678Z,63.90
2022-09-07T06:01:30.658Z,63.64
2022-09-07T06:03:57.775Z,63.75
2022-09-07T06:06:24.470Z,63.78
2022-09-07T06:08:52.557Z,63.62
2022-09-07T06:11:23.318Z,64.33
2022-09-07T06:13:50.643Z,63.66
2022-09-07T06:16:18.337Z,63.29
2022-09-07T06:18:47.137Z,63.55
2022-09-07T06:21:15.081Z,63.40
2022-09-07T06:23:43.166Z,63.52
2022-09-07T06:26:10.659Z,63.60
2022-09-07T06:28:39.549Z,63.63
2022-09-07T06:31:14.813Z,63.39
2022-09-07T06:33:42.708Z,63.00
2022-09-07T06:36:17.614Z,62.52
2022-09-07T06:38:45.089Z,62.49
2022-09-07T06:44:18.399Z,62.35
2022-09-07T06:49:31.828Z,61.66
2022-09-07T06:51:58.388Z,61.58
2022-09-07T06:57:11.794Z,61.55
2022-09-07T06:59:38.554Z,61.74
2022-09-07T07:02:06.278Z,61.67
2022-09-07T07:04:37.817Z,61.69
2022-09-07T07:07:10.670Z,61.84
2022-09-07T07:09:37.311Z,61.89
2022-09-07T07:12:04.057Z,62.00
2022-09-07T07:14:33.799Z,62.00
2022-09-07T07:17:01.669Z,62.06
2022-09-07T07:19:28.620Z,61.85
2022-09-07T07:22:29.663Z,62.02
2022-09-07T07:24:42.538Z,62.11
2022-09-07T07:27:09.189Z,62.57
2022-09-07T07:29:35.739Z,62.50
2022-09-07T07:32:02.590Z,62.57
2022-09-07T07:34:29.423Z,62.72
2022-09-07T07:36:56.055Z,62.53
2022-09-07T07:42:09.859Z,61.71
2022-09-07T07:44:36.409Z,61.77
2022-09-07T07:47:03.189Z,60.73
2022-09-07T07:49:29.848Z,60.92
2022-09-07T07:54:43.732Z,60.60
2022-09-07T07:57:10.416Z,60.87
2022-09-07T07:59:37.336Z,60.91
2022-09-07T08:02:06.014Z,60.61
2022-09-07T08:04:35.444Z,59.48
2022-09-07T08:07:09.219Z,59.88
2022-09-07T08:09:41.167Z,59.75
2022-09-07T08:12:08.868Z,59.58
2022-09-07T08:14:35.655Z,58.91
2022-09-07T08:17:02.387Z,57.74
2022-09-07T08:19:28.948Z,57.50
2022-09-07T08:21:55.434Z,56.82
2022-09-07T08:24:22.248Z,56.42
2022-09-07T08:26:49.024Z,56.49
2022-09-07T08:29:15.595Z,56.78
2022-09-07T08:31:42.503Z,56.27
2022-09-07T08:34:09.044Z,55.68
2022-09-07T08:36:35.786Z,55.31
2022-09-07T08:39:02.451Z,54.16
2022-09-07T08:41:46.189Z,53.40
2022-09-07T08:44:18.775Z,52.65
2022-09-07T08:46:49.763Z,53.70
2022-09-07T08:49:21.219Z,53.66
2022-09-07T08:51:55.115Z,52.86
2022-09-07T08:54:21.715Z,53.85
2022-09-07T08:59:54.304Z,51.98
2022-09-07T09:02:28.711Z,53.30
2022-09-07T09:07:55.872Z,49.96
2022-09-07T09:10:36.723Z,51.67
2022-09-07T09:13:18.394Z,49.35
2022-09-07T09:15:51.758Z,51.40
2022-09-07T09:18:40.153Z,51.20
2022-09-07T09:21:13.796Z,51.14
2022-09-07T09:23:42.379Z,52.05
2022-09-07T09:26:14.759Z,50.90
2022-09-07T09:28:41.327Z,51.20
2022-09-07T09:31:17.260Z,49.79
2022-09-07T09:33:44.070Z,50.93
2022-09-07T09:37:00.070Z,48.40
2022-09-07T09:39:34.078Z,49.85
2022-09-07T15:48:21.428Z,36.04
2022-09-07T15:50:49.060Z,35.62
2022-09-07T15:56:03.517Z,35.51
2022-09-07T15:58:30.023Z,35.85
2022-09-07T16:03:51.861Z,35.88
2022-09-07T16:06:18.534Z,36.06
2022-09-07T16:08:45.351Z,36.27
2022-09-07T16:11:26.429Z,37.01
2022-09-07T16:14:01.345Z,37.70
2022-09-07T16:19:20.606Z,39.03
2022-09-07T16:21:47.342Z,39.31
2022-09-07T16:24:13.907Z,39.66
2022-09-07T16:26:40.382Z,39.85
2022-09-07T16:29:07.034Z,40.07
2022-09-07T16:31:33.988Z,40.24
2022-09-07T16:34:02.287Z,40.47
2022-09-07T16:36:30.343Z,40.53
2022-09-07T16:38:59.435Z,40.26
2022-09-07T16:41:28.633Z,40.75
2022-09-07T16:43:55.949Z,41.11
2022-09-07T16:46:25.620Z,41.37
2022-09-07T16:48:53.075Z,41.62
2022-09-07T16:51:21.366Z,42.06
2022-09-07T16:53:49.323Z,42.19
2022-09-07T16:56:17.267Z,42.53
2022-09-07T16:58:46.536Z,42.28
2022-09-07T17:01:16.177Z,42.57
2022-09-07T17:03:43.296Z,42.94
2022-09-07T17:06:12.475Z,42.95
2022-09-07T17:08:40.138Z,42.99
2022-09-07T17:11:09.960Z,43.57
2022-09-07T17:13:38.224Z,43.49
2022-09-07T17:16:13.428Z,43.97
2022-09-07T17:21:30.012Z,43.92
2022-09-07T17:23:56.753Z,44.33
2022-09-07T17:26:26.579Z,44.33
2022-09-07T17:28:59.772Z,44.85
2022-09-07T17:34:16.787Z,45.19
2022-09-07T17:36:43.257Z,45.78
2022-09-07T17:39:19.158Z,46.14
2022-09-07T17:41:47.967Z,46.05
2022-09-07T17:44:14.975Z,46.20
2022-09-07T17:46:41.509Z,46.51
2022-09-07T17:49:09.736Z,47.16
2022-09-07T17:51:36.251Z,46.96
2022-09-07T17:54:12.939Z,47.65
2022-09-07T17:56:41.272Z,47.67
2022-09-07T18:01:55.473Z,48.86
2022-09-07T18:04:22.145Z,48.46
2022-09-07T18:06:48.961Z,48.29
2022-09-07T18:09:15.752Z,48.81
2022-09-07T18:11:46.867Z,48.94
2022-09-07T18:14:14.589Z,48.93
2022-09-07T18:16:42.487Z,49.43
2022-09-07T18:19:10.902Z,49.66
2022-09-07T18:21:38.107Z,49.40
2022-09-07T18:24:16.357Z,50.62
2022-09-07T18:26:43.162Z,49.69
2022-09-07T18:29:27.325Z,49.56
2022-09-07T18:31:55.783Z,49.61
2022-09-07T18:34:22.510Z,49.85
2022-09-07T18:36:49.235Z,50.04
2022-09-07T18:39:16.014Z,49.92
2022-09-07T18:41:42.509Z,50.17
2022-09-07T18:46:55.707Z,50.80
2022-09-07T18:49:22.297Z,50.85
2022-09-07T18:54:35.415Z,51.38
2022-09-07T18:57:01.894Z,51.29
2022-09-07T18:59:29.836Z,51.42
2022-09-07T19:02:01.300Z,50.76
2022-09-07T19:05:49.551Z,51.15
2022-09-07T19:07:16.986Z,51.60
2022-09-07T19:09:43.478Z,51.54
2022-09-07T19:12:12.540Z,51.88
2022-09-07T19:14:39.069Z,52.02
2022-09-07T19:17:05.701Z,52.21
2022-09-07T19:19:32.166Z,52.02
2022-09-07T19:21:58.671Z,52.47
2022-09-07T19:24:25.288Z,52.50
2022-09-07T19:26:52.207Z,52.45
2022-09-07T19:29:20.412Z,52.60
2022-09-07T19:31:51.957Z,53.85
2022-09-07T19:34:18.619Z,52.80
2022-09-07T19:36:45.092Z,52.82
2022-09-07T19:39:11.827Z,53.30
2022-09-07T19:41:38.415Z,53.28
2022-09-07T19:44:04.946Z,53.43
2022-09-07T19:46:31.474Z,53.48
2022-09-07T19:48:57.996Z,53.57
2022-09-07T19:51:24.458Z,53.72
2022-09-07T19:53:51.091Z,53.87
2022-09-07T19:56:19.677Z,54.30
2022-09-07T19:58:46.412Z,53.77
2022-09-07T20:01:18.897Z,53.98
2022-09-07T20:03:47.518Z,53.85
2022-09-07T20:06:16.155Z,54.20
2022-09-07T20:08:43.126Z,53.78
2022-09-07T20:11:13.203Z,54.38
2022-09-07T20:13:40.788Z,53.91
2022-09-07T20:16:11.686Z,54.03
2022-09-07T20:18:39.309Z,54.54
2022-09-07T20:21:08.006Z,54.69
2022-09-07T20:23:35.524Z,54.25
2022-09-07T20:26:05.181Z,55.07
2022-09-07T20:28:32.424Z,54.63
2022-09-07T20:30:58.939Z,54.83
2022-09-07T20:33:25.432Z,54.84
2022-09-07T20:35:51.951Z,54.90
2022-09-07T20:38:20.345Z,55.25
2022-09-07T20:40:54.688Z,56.24
2022-09-07T20:43:21.784Z,55.25
2022-09-07T20:45:48.283Z,55.05
2022-09-07T20:48:14.919Z,55.23
2022-09-07T20:50:41.860Z,55.07
2022-09-07T20:53:08.569Z,55.34
2022-09-07T20:55:35.602Z,55.37
2022-09-07T20:58:03.024Z,55.00
2022-09-07T21:00:29.605Z,55.43
2022-09-07T21:02:56.499Z,55.39
2022-09-07T21:05:23.065Z,55.60
2022-09-07T21:07:49.554Z,55.69
2022-09-07T21:10:16.142Z,55.73
2022-09-07T21:12:42.769Z,55.52
2022-09-07T21:15:09.770Z,55.85
2022-09-07T21:17:36.240Z,55.68
2022-09-07T21:20:03.081Z,55.55
2022-09-07T21:22:30.964Z,55.93
2022-09-07T21:24:57.607Z,56.06
2022-09-07T21:27:24.148Z,56.05
2022-09-07T21:29:51.144Z,55.98
2022-09-07T21:32:17.688Z,56.48
2022-09-07T21:34:44.224Z,56.63
2022-09-07T21:37:10.808Z,56.73
2022-09-07T21:39:37.347Z,56.49
2022-09-07T21:42:04.028Z,56.67
2022-09-07T21:44:30.617Z,56.43
2022-09-07T21:46:57.345Z,56.52
2022-09-07T21:49:23.940Z,56.65
2022-09-07T21:51:50.408Z,56.73
2022-09-07T21:54:16.959Z,56.43
2022-09-07T21:56:46.716Z,56.61
2022-09-07T21:59:13.867Z,56.88
2022-09-07T22:01:40.497Z,56.94
2022-09-07T22:04:07.081Z,56.75
2022-09-07T22:06:34.088Z,56.73
2022-09-07T22:09:02.150Z,56.88
2022-09-07T22:11:29.574Z,56.59
2022-09-07T22:13:59.336Z,56.53
2022-09-07T22:16:26.213Z,56.26
2022-09-07T22:18:52.772Z,56.47
2022-09-07T22:21:21.928Z,56.79
2022-09-07T22:23:51.175Z,56.78
2022-09-07T22:26:23.603Z,57.91
2022-09-07T22:28:50.517Z,56.86
2022-09-07T22:31:20.643Z,57.26
2022-09-07T22:33:48.569Z,57.14
2022-09-07T22:36:18.415Z,57.15
2022-09-07T22:38:46.453Z,57.20
2022-09-07T22:41:17.038Z,57.01
2022-09-07T22:43:45.096Z,57.03
2022-09-07T22:46:12.387Z,57.03
2022-09-07T22:48:40.377Z,57.12
2022-09-07T22:51:08.660Z,57.41
2022-09-07T22:53:38.509Z,58.22
2022-09-07T22:56:19.443Z,58.52
2022-09-07T22:58:48.542Z,57.53
2022-09-07T23:01:15.753Z,57.79
2022-09-07T23:03:43.870Z,57.82
2022-09-07T23:06:25.073Z,58.64
2022-09-07T23:08:53.028Z,57.90
2022-09-07T23:11:19.674Z,58.29
2022-09-07T23:13:49.834Z,58.80
2022-09-07T23:16:16.481Z,58.61
2022-09-07T23:18:43.021Z,59.06
2022-09-07T23:21:10.835Z,58.89
2022-09-07T23:23:37.629Z,59.02
2022-09-07T23:26:05.119Z,58.65
2022-09-07T23:28:32.240Z,58.68
2022-09-07T23:30:59.450Z,58.50
2022-09-07T23:33:26.923Z,58.60
2022-09-07T23:36:02.792Z,59.41
2022-09-07T23:38:30.064Z,58.49
2022-09-07T23:40:57.502Z,58.41
2022-09-07T23:43:25.389Z,58.63
2022-09-07T23:45:51.947Z,58.47
2022-09-07T23:48:18.490Z,58.49
2022-09-07T23:50:45.737Z,58.59
2022-09-07T23:53:12.937Z,58.52
2022-09-07T23:55:40.188Z,58.33
2022-09-07T23:58:08.119Z,58.46
